createdAt,value
2024-05-09T00:08:01.164Z,1.33
2024-05-09T00:10:46.258Z,1.48
2024-05-09T00:13:31.525Z,1.77
2024-05-09T00:16:16.254Z,1.65
2024-05-09T00:19:01.338Z,2.10
2024-05-09T00:21:46.416Z,1.10
2024-05-09T00:29:54.368Z,1.20
2024-05-09T00:32:39.396Z,0.95
2024-05-09T00:35:24.587Z,1.20
2024-05-09T00:38:10.279Z,1.70
2024-05-09T00:40:55.306Z,1.60
2024-05-09T00:43:40.450Z,1.60
2024-05-09T00:51:50.599Z,2.10
2024-05-09T00:54:36.054Z,1.77
2024-05-09T00:57:22.431Z,0.90
2024-05-09T01:00:22.349Z,2.30
2024-05-09T01:03:15.499Z,1.52
2024-05-09T01:06:00.771Z,1.70
2024-05-09T01:14:18.271Z,0.80
2024-05-09T01:17:03.629Z,1.23
2024-05-09T01:19:49.029Z,0.85
2024-05-09T01:22:36.140Z,1.55
2024-05-09T01:25:21.664Z,1.42
2024-05-09T01:28:06.916Z,1.13
2024-05-09T01:36:13.824Z,0.90
2024-05-09T01:38:58.799Z,1.05
2024-05-09T01:41:43.752Z,1.05
2024-05-09T01:44:28.978Z,0.60
2024-05-09T01:47:14.082Z,0.80
2024-05-09T01:49:59.250Z,0.68
2024-05-09T01:57:55.153Z,0.70
2024-05-09T02:00:42.571Z,0.50
2024-05-09T02:03:28.425Z,0.60
2024-05-09T02:06:13.391Z,0.30
2024-05-09T02:08:58.570Z,0.40
2024-05-09T02:19:36.540Z,0.30
2024-05-09T02:22:21.756Z,0.20
2024-05-09T02:25:07.113Z,0.30
2024-05-09T02:27:52.634Z,0.20
2024-05-09T02:30:41.064Z,0.47
2024-05-09T02:41:32.334Z,0.20
2024-05-09T02:44:17.341Z,0.80
2024-05-09T02:47:02.513Z,0.60
2024-05-09T02:49:47.704Z,0.40
2024-05-09T02:52:32.726Z,0.30
2024-05-09T02:58:57.669Z,0.33
2024-05-09T03:01:42.510Z,0.22
2024-05-09T03:04:27.817Z,0.35
2024-05-09T03:07:13.103Z,0.40
2024-05-09T03:09:58.252Z,0.30
2024-05-09T03:12:43.245Z,0.60
2024-05-09T03:20:51.721Z,0.43
2024-05-09T03:23:43.450Z,0.40
2024-05-09T03:26:28.715Z,0.80
2024-05-09T03:29:13.793Z,0.22
2024-05-09T03:32:02.083Z,0.50
2024-05-09T03:40:28.955Z,0.20
2024-05-09T03:43:17.617Z,0.30
2024-05-09T03:46:02.580Z,0.75
2024-05-09T03:48:47.752Z,0.65
2024-05-09T03:51:32.959Z,0.40
2024-05-09T03:54:18.258Z,0.45
2024-05-09T04:02:25.412Z,0.50
2024-05-09T04:05:10.332Z,0.30
2024-05-09T04:07:55.429Z,0.43
2024-05-09T04:10:41.473Z,0.38
2024-05-09T04:13:26.187Z,0.60
2024-05-09T04:16:11.594Z,0.50
2024-05-09T04:24:18.002Z,0.63
2024-05-09T04:27:03.749Z,0.40
2024-05-09T04:29:48.556Z,0.68
2024-05-09T04:32:33.977Z,0.60
2024-05-09T04:35:18.954Z,0.65
2024-05-09T04:38:05.099Z,0.52
2024-05-09T04:46:17.410Z,0.50
2024-05-09T04:49:02.410Z,0.68
2024-05-09T04:51:50.234Z,0.60
2024-05-09T04:54:36.637Z,0.50
2024-05-09T04:57:22.126Z,0.40
2024-05-09T05:00:14.509Z,0.43
2024-05-09T05:08:47.986Z,0.87
2024-05-09T05:11:32.890Z,0.70
2024-05-09T05:14:18.072Z,0.50
2024-05-09T05:17:03.401Z,0.30
2024-05-09T05:19:48.534Z,0.30
2024-05-09T05:22:37.217Z,0.50
2024-05-09T05:30:42.297Z,0.30
2024-05-09T05:33:27.827Z,0.20
2024-05-09T05:36:16.387Z,0.43
2024-05-09T05:39:01.560Z,0.68
2024-05-09T05:41:46.572Z,0.40
2024-05-09T05:44:32.126Z,0.70
2024-05-09T05:52:38.374Z,0.70
2024-05-09T05:55:23.179Z,0.50
2024-05-09T05:58:10.058Z,0.52
2024-05-09T06:00:54.883Z,0.50
2024-05-09T06:03:39.993Z,0.60
2024-05-09T06:06:25.617Z,0.50
2024-05-09T06:14:32.520Z,0.60
2024-05-09T06:17:17.751Z,0.50
2024-05-09T06:20:03.694Z,0.32
2024-05-09T06:22:49.447Z,0.60
2024-05-09T06:25:35.704Z,0.52
2024-05-09T06:36:44.047Z,0.43
2024-05-09T06:39:28.708Z,0.60
2024-05-09T06:42:13.853Z,0.75
2024-05-09T06:45:05.404Z,0.40
2024-05-09T06:47:50.734Z,0.68
2024-05-09T06:58:55.893Z,0.40
2024-05-09T07:01:41.159Z,0.68
2024-05-09T07:04:26.320Z,0.40
2024-05-09T07:07:11.297Z,0.60
2024-05-09T07:09:56.241Z,0.98
2024-05-09T07:12:41.267Z,0.70
2024-05-09T07:21:08.648Z,0.90
2024-05-09T07:23:53.506Z,0.50
2024-05-09T07:26:38.829Z,0.50
2024-05-09T07:29:23.779Z,0.38
2024-05-09T07:32:09.280Z,0.40
2024-05-09T07:34:54.404Z,0.60
2024-05-09T07:43:07.347Z,0.68
2024-05-09T07:45:54.791Z,0.70
2024-05-09T07:53:08.591Z,0.40
2024-05-09T07:54:34.350Z,0.43
2024-05-09T08:04:58.299Z,0.50
2024-05-09T08:07:43.556Z,0.90
2024-05-09T08:10:29.369Z,0.98
2024-05-09T08:13:15.057Z,0.22
2024-05-09T08:16:00.082Z,1.05
2024-05-09T08:18:45.983Z,0.32
2024-05-09T08:27:05.257Z,0.60
2024-05-09T08:29:49.928Z,0.75
2024-05-09T08:32:35.175Z,0.90
2024-05-09T08:35:20.179Z,0.80
2024-05-09T08:38:07.226Z,0.50
2024-05-09T08:40:52.774Z,0.63
2024-05-09T08:49:03.165Z,0.40
2024-05-09T08:51:48.283Z,0.70
2024-05-09T08:54:33.812Z,0.65
2024-05-09T08:57:21.427Z,1.05
2024-05-09T09:00:12.516Z,1.10
2024-05-09T09:11:27.059Z,0.90
2024-05-09T09:14:11.929Z,0.70
2024-05-09T09:16:56.991Z,1.02
2024-05-09T09:19:43.137Z,0.70
2024-05-09T09:22:28.048Z,0.93
2024-05-09T09:25:13.441Z,0.80
2024-05-09T09:33:21.194Z,1.35
2024-05-09T09:36:08.331Z,0.70
2024-05-09T09:38:56.051Z,1.00
2024-05-09T09:41:44.781Z,0.70
2024-05-09T09:44:32.221Z,0.40
2024-05-09T09:55:37.407Z,0.93
2024-05-09T09:58:23.275Z,1.23
2024-05-09T10:01:08.328Z,0.98
2024-05-09T10:03:53.578Z,0.98
2024-05-09T10:06:44.097Z,0.82
2024-05-09T10:17:51.076Z,0.40
2024-05-09T10:20:44.159Z,0.90
2024-05-09T10:23:31.405Z,0.60
2024-05-09T10:26:16.594Z,0.80
2024-05-09T10:29:16.399Z,0.60
2024-05-09T10:32:02.722Z,0.80
2024-05-09T10:40:31.866Z,1.15
2024-05-09T10:43:19.149Z,0.80
2024-05-09T10:46:04.590Z,0.73
2024-05-09T10:48:50.601Z,0.50
2024-05-09T10:51:36.314Z,0.80
2024-05-09T10:54:21.108Z,0.60
2024-05-09T11:05:35.588Z,0.82
2024-05-09T11:08:22.334Z,0.60
2024-05-09T11:11:08.875Z,0.70
2024-05-09T11:13:54.186Z,0.80
2024-05-09T11:16:39.468Z,0.93
2024-05-09T11:25:01.413Z,0.70
2024-05-09T11:27:46.788Z,0.75
2024-05-09T11:30:32.550Z,0.60
2024-05-09T11:33:21.269Z,1.90
2024-05-09T11:36:07.567Z,0.90
2024-05-09T11:47:13.305Z,0.73
2024-05-09T11:49:58.931Z,0.82
2024-05-09T11:52:43.859Z,0.77
2024-05-09T11:55:28.942Z,0.60
2024-05-09T12:09:21.780Z,0.80
2024-05-09T12:12:07.108Z,0.65
2024-05-09T12:14:51.990Z,0.57
2024-05-09T12:17:37.226Z,0.68
2024-05-09T12:30:46.974Z,0.70
2024-05-09T12:33:32.632Z,0.88
2024-05-09T12:36:17.987Z,0.80
2024-05-09T12:41:48.111Z,0.80
2024-05-09T12:52:37.258Z,0.90
2024-05-09T12:55:22.046Z,1.00
2024-05-09T13:00:52.790Z,0.80
2024-05-09T13:03:38.229Z,0.50
2024-05-09T13:06:23.601Z,0.60
2024-05-09T13:14:35.037Z,0.50
2024-05-09T13:17:21.097Z,0.75
2024-05-09T13:20:11.876Z,0.55
2024-05-09T13:23:05.598Z,0.80
2024-05-09T13:25:51.382Z,0.50
2024-05-09T13:36:44.843Z,0.32
2024-05-09T13:39:29.880Z,0.57
2024-05-09T13:42:16.988Z,0.50
2024-05-09T13:45:02.285Z,0.50
2024-05-09T13:47:47.489Z,0.47
2024-05-09T13:50:35.724Z,0.70
2024-05-09T13:58:47.343Z,0.63
2024-05-09T14:01:32.502Z,0.50
2024-05-09T14:04:17.794Z,0.50
2024-05-09T14:07:03.298Z,0.63
2024-05-09T14:09:48.368Z,0.82
2024-05-09T14:12:34.129Z,0.50
2024-05-09T14:20:16.442Z,0.70
2024-05-09T14:23:04.625Z,0.40
2024-05-09T14:25:52.035Z,0.35
2024-05-09T14:28:37.499Z,0.75
2024-05-09T14:31:22.728Z,0.50
2024-05-09T14:34:08.132Z,0.30
2024-05-09T14:42:08.399Z,0.95
2024-05-09T14:44:53.134Z,0.52
2024-05-09T14:47:38.375Z,0.60
2024-05-09T14:50:28.218Z,0.60
2024-05-09T14:53:20.735Z,0.70
2024-05-09T14:56:06.281Z,0.70
2024-05-09T15:04:16.689Z,0.57
2024-05-09T15:07:01.924Z,0.25
2024-05-09T15:09:46.996Z,0.50
2024-05-09T15:12:32.220Z,0.35
2024-05-09T15:15:17.803Z,0.40
2024-05-09T15:26:28.362Z,0.47
2024-05-09T15:29:13.215Z,0.40
2024-05-09T15:31:58.436Z,0.52
2024-05-09T15:34:43.447Z,0.57
2024-05-09T15:37:28.624Z,0.30
2024-05-09T15:40:18.848Z,0.85
2024-05-09T15:48:33.960Z,0.90
2024-05-09T15:51:19.425Z,0.50
2024-05-09T15:54:04.983Z,0.50
2024-05-09T15:56:50.176Z,0.50
2024-05-09T15:59:35.657Z,0.60
2024-05-09T16:02:20.920Z,0.45
2024-05-09T16:09:15.948Z,0.45
2024-05-09T16:12:01.590Z,0.50
2024-05-09T16:14:46.800Z,0.38
2024-05-09T16:17:33.168Z,0.28
2024-05-09T16:20:29.888Z,0.30
2024-05-09T16:29:04.621Z,0.50
2024-05-09T16:31:50.918Z,0.55
2024-05-09T16:34:35.852Z,0.20
2024-05-09T16:37:20.848Z,0.20
2024-05-09T16:40:12.375Z,0.20
2024-05-09T16:51:26.288Z,0.30
2024-05-09T16:54:11.095Z,0.52
2024-05-09T16:56:56.230Z,0.30
2024-05-09T16:59:41.385Z,0.30
2024-05-09T17:02:31.337Z,0.32
2024-05-09T17:05:16.660Z,0.40
2024-05-09T17:13:20.390Z,0.40
2024-05-09T17:16:09.242Z,1.10
2024-05-09T17:18:54.485Z,0.30
2024-05-09T17:21:39.544Z,0.60
2024-05-09T17:24:24.486Z,0.40
2024-05-09T17:30:48.132Z,0.40
2024-05-09T17:33:33.338Z,0.80
2024-05-09T17:36:18.627Z,1.10
2024-05-09T17:39:03.510Z,1.08
2024-05-09T17:41:48.770Z,1.70
2024-05-09T17:55:11.740Z,0.98
2024-05-09T17:57:56.823Z,1.23
2024-05-09T18:00:42.827Z,2.85
2024-05-09T18:03:27.964Z,2.58
2024-05-09T18:06:13.160Z,1.23
2024-05-09T18:14:20.614Z,1.00
2024-05-09T18:17:05.580Z,0.70
2024-05-09T18:19:50.666Z,0.77
2024-05-09T18:22:35.841Z,0.80
2024-05-09T18:25:21.023Z,0.95
2024-05-09T18:36:23.402Z,1.57
2024-05-09T18:39:08.445Z,1.63
2024-05-09T18:41:53.029Z,5.20
2024-05-09T18:44:38.292Z,2.08
2024-05-09T18:47:23.540Z,2.17
2024-05-09T18:50:14.648Z,1.90
2024-05-09T18:58:19.859Z,1.10
2024-05-09T19:01:05.558Z,1.50
2024-05-09T19:03:52.447Z,1.20
2024-05-09T19:06:38.025Z,0.80
2024-05-09T19:09:23.070Z,1.10
2024-05-09T19:12:08.323Z,0.82
2024-05-09T19:20:20.529Z,0.57
2024-05-09T19:23:13.376Z,1.30
2024-05-09T19:25:58.649Z,2.45
2024-05-09T19:28:44.109Z,1.05
2024-05-09T19:31:29.293Z,1.30
2024-05-09T19:42:37.759Z,0.93
2024-05-09T19:45:29.735Z,1.17
2024-05-09T19:48:14.928Z,1.10
2024-05-09T19:51:00.254Z,1.48
2024-05-09T19:53:45.083Z,1.17
2024-05-09T19:56:30.838Z,1.00
2024-05-09T20:04:57.340Z,1.40
2024-05-09T20:07:42.174Z,1.40
2024-05-09T20:10:32.138Z,0.98
2024-05-09T20:13:19.448Z,1.10
2024-05-09T20:16:05.855Z,0.80
2024-05-09T20:18:50.874Z,1.00
2024-05-09T20:27:23.522Z,0.73
2024-05-09T20:30:12.243Z,0.95
2024-05-09T20:33:01.183Z,1.45
2024-05-09T20:35:46.410Z,1.52
2024-05-09T20:38:31.495Z,0.70
2024-05-09T20:41:16.619Z,0.80
2024-05-09T20:49:44.980Z,1.10
2024-05-09T20:52:30.537Z,1.35
2024-05-09T20:55:16.229Z,1.02
2024-05-09T20:58:01.857Z,1.98
2024-05-09T21:00:46.964Z,1.30
2024-05-09T21:03:32.673Z,1.13
2024-05-09T21:11:26.459Z,1.80
2024-05-09T21:14:11.684Z,1.27
2024-05-09T21:16:56.670Z,0.85
2024-05-09T21:19:42.075Z,0.90
2024-05-09T21:22:26.999Z,0.68
2024-05-09T21:33:22.285Z,0.90
2024-05-09T21:36:08.974Z,0.90
2024-05-09T21:38:54.163Z,0.85
2024-05-09T21:41:39.125Z,1.05
2024-05-09T21:44:24.197Z,0.63
2024-05-09T21:47:09.755Z,0.98
2024-05-09T21:55:18.093Z,0.80
2024-05-09T21:58:03.511Z,0.80
2024-05-09T22:00:48.790Z,0.75
2024-05-09T22:03:34.164Z,0.70
2024-05-09T22:06:19.550Z,0.63
2024-05-09T22:09:05.071Z,0.65
2024-05-09T22:17:13.377Z,0.70
2024-05-09T22:19:58.071Z,0.70
2024-05-09T22:22:43.168Z,1.02
2024-05-09T22:25:30.424Z,0.60
2024-05-09T22:28:16.498Z,0.70
2024-05-09T22:36:35.034Z,0.70
2024-05-09T22:39:19.896Z,1.00
2024-05-09T22:42:05.039Z,1.33
2024-05-09T22:44:50.029Z,1.08
2024-05-09T22:47:35.130Z,0.70
2024-05-09T22:50:26.745Z,0.93
2024-05-09T22:58:38.677Z,0.90
2024-05-09T23:01:26.337Z,0.85
2024-05-09T23:04:11.686Z,0.50
2024-05-09T23:06:56.785Z,0.77
2024-05-09T23:09:45.075Z,0.60
2024-05-09T23:20:51.990Z,1.07
2024-05-09T23:23:36.824Z,0.70
2024-05-09T23:26:22.122Z,1.25
2024-05-09T23:29:07.151Z,1.17
2024-05-09T23:31:52.313Z,1.10
2024-05-09T23:42:58.940Z,1.90
2024-05-09T23:45:44.051Z,1.70
2024-05-09T23:48:28.895Z,2.10
2024-05-09T23:51:14.395Z,1.30
2024-05-09T23:53:59.096Z,0.95
2024-05-09T23:56:44.460Z,1.80
